Time;durP1;ratioP1;P1;durP2;ratioP2;P2;SDS_P1;SDS_P2;PMS_P1;PMS_P2;Temp;Humidity;BMP_temperature;BMP_pressure;BME280_temperature;BME280_humidity;BME280_pressure;Samples;Min_cycle;Max_cycle;Signal;HPM_P1;HPM_P2
2022/01/10 00:00:26;;;;;;;4.80;2.75;;;;;;;19.28;53.25;95930.28;10311701;28;20077;-21
2022/01/10 00:05:26;;;;;;;4.47;2.20;;;;;;;19.31;52.98;95936.97;10290055;28;20066;-21
2022/01/10 00:10:27;;;;;;;4.72;1.92;;;;;;;19.30;52.99;95940.38;10289402;28;20062;-22
2022/01/10 00:15:27;;;;;;;5.30;2.17;;;;;;;19.39;52.68;95937.69;10307957;28;20038;-21
2022/01/10 00:20:28;;;;;;;5.47;2.22;;;;;;;19.38;52.74;95944.50;10312915;28;20042;-21
2022/01/10 00:25:28;;;;;;;3.37;2.00;;;;;;;19.36;52.86;95945.38;10290168;28;20050;-22
2022/01/10 00:30:28;;;;;;;7.07;3.40;;;;;;;19.35;53.00;95952.13;10288779;28;20715;-21
2022/01/10 00:35:29;;;;;;;5.47;2.10;;;;;;;19.31;53.08;95957.28;10288846;28;20357;-21
2022/01/10 00:40:30;;;;;;;4.35;2.03;;;;;;;19.33;53.07;95963.19;10287531;28;20031;-21
2022/01/10 00:45:31;;;;;;;4.77;2.33;;;;;;;19.32;53.26;95969.97;10288908;28;20034;-21
2022/01/10 00:50:33;;;;;;;3.10;2.00;;;;;;;19.32;53.20;95971.66;10296174;28;20031;-21
2022/01/10 00:55:34;;;;;;;3.28;1.80;;;;;;;19.33;53.25;95978.44;10328922;28;20058;-22
2022/01/10 01:00:34;;;;;;;5.45;2.42;;;;;;;19.31;53.32;95986.06;10302136;28;20116;-21
2022/01/10 01:05:39;;;;;;;3.10;1.80;;;;;;;19.35;52.95;95987.66;10288642;28;20113;-21
2022/01/10 01:15:57;;;;;;;3.13;1.88;;;;;;;19.34;52.96;95997.88;10322386;28;20038;-21
2022/01/10 01:26:17;;;;;;;3.65;2.00;;;;;;;19.30;53.25;96016.53;10287804;28;20049;-21
2022/01/10 01:31:17;;;;;;;2.92;2.08;;;;;;;19.30;53.31;96027.53;10287232;28;20120;-21
2022/01/10 01:36:23;;;;;;;3.93;2.17;;;;;;;19.31;53.26;96030.88;10287354;28;20035;-21
2022/01/10 01:46:27;;;;;;;4.25;2.70;;;;;;;19.30;53.27;96046.97;10286562;28;20046;-21
2022/01/10 01:51:28;;;;;;;3.63;2.10;;;;;;;19.15;53.19;96020.09;10304166;28;20038;-21
2022/01/10 01:56:29;;;;;;;5.20;2.30;;;;;;;19.36;52.96;96051.97;10325371;28;20037;-21
2022/01/10 02:01:29;;;;;;;4.30;2.00;;;;;;;19.32;53.05;96066.41;10300102;28;20031;-21
2022/01/10 02:06:30;;;;;;;6.00;1.92;;;;;;;19.27;53.19;96062.25;10284903;28;20042;-21
2022/01/10 02:11:30;;;;;;;4.85;1.42;;;;;;;19.31;53.11;96069.81;10284928;28;20090;-21
2022/01/10 02:16:41;;;;;;;2.90;2.00;;;;;;;19.30;53.19;96087.59;10312369;28;20041;-21
2022/01/10 02:21:44;;;;;;;3.80;1.70;;;;;;;19.29;53.20;96085.91;10299733;28;20473;-21
2022/01/10 02:26:48;;;;;;;6.30;1.83;;;;;;;19.31;53.25;96084.19;10288625;28;20038;-21
2022/01/10 02:31:49;;;;;;;5.80;1.77;;;;;;;19.29;53.21;96086.75;10300442;28;20414;-21
2022/01/10 02:36:50;;;;;;;2.92;1.35;;;;;;;19.31;53.14;96096.88;10292922;28;20038;-21
2022/01/10 02:41:50;;;;;;;4.00;1.90;;;;;;;19.33;52.74;96102.81;10291654;28;20126;-21
2022/01/10 02:46:51;;;;;;;3.20;1.60;;;;;;;19.38;52.92;96109.50;10306996;28;20416;-21
2022/01/10 02:52:11;;;;;;;3.50;1.75;;;;;;;19.35;53.15;96116.31;10315633;28;20674;-21
2022/01/10 02:57:12;;;;;;;2.00;1.63;;;;;;;19.34;53.07;96128.13;10326475;28;20105;-22
2022/01/10 03:02:19;;;;;;;3.47;1.60;;;;;;;19.13;53.26;96087.78;10292762;28;20077;-21
2022/01/10 03:07:23;;;;;;;4.90;1.98;;;;;;;19.32;53.20;96123.94;10291241;28;20053;-21
2022/01/10 03:12:25;;;;;;;4.78;1.85;;;;;;;19.29;53.44;96136.66;10290921;28;20117;-21
2022/01/10 03:17:26;;;;;;;2.45;1.40;;;;;;;19.28;53.36;96135.84;10325209;28;20034;-21
2022/01/10 03:22:27;;;;;;;4.20;1.30;;;;;;;19.29;53.14;96137.53;10299543;28;20039;-22
2022/01/10 03:27:27;;;;;;;4.00;1.97;;;;;;;19.28;53.02;96150.22;10292175;28;20120;-21
2022/01/10 03:32:27;;;;;;;2.58;1.63;;;;;;;19.34;52.99;96166.22;10289740;28;20031;-21
2022/01/10 03:37:36;;;;;;;3.70;1.20;;;;;;;19.36;52.75;96168.75;10289569;28;20489;-21
2022/01/10 03:42:37;;;;;;;4.60;1.75;;;;;;;19.34;52.73;96183.16;10290590;28;20039;-21
2022/01/10 03:47:38;;;;;;;3.00;1.20;;;;;;;19.32;52.92;96177.22;10290913;28;20035;-22
2022/01/10 03:52:38;;;;;;;3.47;1.40;;;;;;;19.17;53.03;96178.22;10315649;28;20104;-21
2022/01/10 03:57:39;;;;;;;3.97;1.70;;;;;;;19.29;53.23;96195.91;10328996;28;20084;-22
2022/01/10 04:02:43;;;;;;;5.05;1.40;;;;;;;19.31;52.99;96206.00;10291777;28;20118;-21
2022/01/10 04:07:44;;;;;;;5.18;1.38;;;;;;;19.32;53.02;96210.22;10289075;28;20050;-22
2022/01/10 04:12:44;;;;;;;2.50;1.02;;;;;;;19.29;53.00;96216.22;10289959;28;20441;-21
2022/01/10 04:17:45;;;;;;;2.25;1.42;;;;;;;19.22;53.03;96211.19;10326587;28;20034;-22
2022/01/10 04:22:46;;;;;;;2.88;1.17;;;;;;;19.36;53.07;96224.59;10303968;28;20085;-21
2022/01/10 04:27:47;;;;;;;1.73;1.25;;;;;;;19.32;52.74;96228.00;10288162;28;20073;-22
2022/01/10 04:32:54;;;;;;;3.92;1.50;;;;;;;19.33;52.92;96243.22;10304022;28;20041;-22
2022/01/10 04:37:55;;;;;;;3.65;1.30;;;;;;;19.35;52.76;96241.50;10289111;28;20485;-21
2022/01/10 04:42:56;;;;;;;1.77;1.35;;;;;;;19.36;52.64;96255.03;10287616;28;20485;-21
2022/01/10 04:47:57;;;;;;;3.05;1.20;;;;;;;19.37;52.71;96261.78;10288005;28;20037;-21
2022/01/10 04:52:59;;;;;;;3.30;1.27;;;;;;;19.33;53.09;96271.13;10325700;28;20037;-21
2022/01/10 04:58:00;;;;;;;3.50;1.63;;;;;;;19.40;52.52;96271.91;10314478;28;20435;-22
2022/01/10 05:03:01;;;;;;;2.28;2.00;;;;;;;19.35;52.53;96263.53;10320745;28;20034;-21
2022/01/10 05:08:02;;;;;;;2.38;1.50;;;;;;;19.40;52.34;96267.69;10313641;28;20053;-21
2022/01/10 05:13:02;;;;;;;1.70;1.40;;;;;;;19.46;52.31;96276.94;10318068;28;20667;-21
2022/01/10 05:18:03;;;;;;;2.33;1.20;;;;;;;19.46;51.73;96294.69;10321028;28;20037;-21
2022/01/10 05:23:03;;;;;;;1.88;1.30;;;;;;;19.45;52.31;96301.50;10317204;28;20038;-22
2022/01/10 05:28:05;;;;;;;5.40;1.87;;;;;;;19.42;52.32;96304.03;10304112;28;20030;-21
2022/01/10 05:33:07;;;;;;;1.92;1.05;;;;;;;19.43;52.25;96307.44;10307278;28;20337;-21
2022/01/10 05:38:17;;;;;;;3.38;1.85;;;;;;;19.42;52.04;96323.53;10320707;28;20038;-21
2022/01/10 05:43:17;;;;;;;3.07;1.33;;;;;;;19.43;51.88;96322.66;10312713;28;20034;-21
2022/01/10 05:48:25;;;;;;;2.38;1.25;;;;;;;19.47;51.85;96339.53;10309044;28;20281;-21
2022/01/10 05:53:28;;;;;;;2.50;1.20;;;;;;;19.48;51.94;96342.06;10316178;28;20546;-21
2022/01/10 05:58:29;;;;;;;2.92;1.33;;;;;;;19.50;51.76;96354.75;10310227;28;20238;-21
2022/01/10 06:03:30;;;;;;;5.00;1.30;;;;;;;19.60;51.77;96352.09;10332892;28;20042;-21
2022/01/10 06:08:37;;;;;;;4.30;1.40;;;;;;;19.47;51.37;96364.94;10291713;28;20098;-21
2022/01/10 06:13:38;;;;;;;4.15;1.58;;;;;;;19.49;51.84;96378.47;10296262;28;20089;-21
2022/01/10 06:18:40;;;;;;;3.40;1.35;;;;;;;19.48;51.90;96386.91;10331265;28;20030;-21
2022/01/10 06:23:41;;;;;;;3.67;1.40;;;;;;;19.50;52.08;96397.94;10294522;28;20078;-21
2022/01/10 06:28:42;;;;;;;4.82;1.92;;;;;;;19.52;51.96;96422.41;10292747;28;20073;-22
2022/01/10 06:33:44;;;;;;;5.00;1.52;;;;;;;19.50;52.11;96430.94;10292056;28;20059;-22
2022/01/10 06:38:45;;;;;;;4.70;1.80;;;;;;;18.96;44.92;96433.84;10291855;28;20122;-23
2022/01/10 06:43:47;;;;;;;4.63;1.48;;;;;;;18.93;47.57;96447.38;10290349;28;20394;-23
2022/01/10 06:48:49;;;;;;;17.50;2.45;;;;;;;19.15;47.93;96453.16;10291106;28;20108;-22
2022/01/10 06:53:53;;;;;;;4.05;1.50;;;;;;;19.25;47.88;96463.28;10291597;28;20462;-22
2022/01/10 06:58:53;;;;;;;4.28;2.05;;;;;;;19.27;48.26;96474.25;10291318;28;20113;-23
2022/01/10 07:04:03;;;;;;;5.32;2.97;;;;;;;19.27;47.87;96466.63;10291599;28;20034;-22
2022/01/10 07:09:03;;;;;;;5.43;2.42;;;;;;;19.27;47.98;96478.50;10291133;28;20031;-22
2022/01/10 07:14:14;;;;;;;3.17;2.42;;;;;;;19.23;47.96;96504.72;10298689;28;20033;-22
2022/01/10 07:19:19;;;;;;;3.22;1.73;;;;;;;19.19;48.16;96516.59;10323905;28;20034;-23
2022/01/10 07:24:19;;;;;;;3.08;1.83;;;;;;;19.20;48.22;96525.06;10290920;28;20497;-22
2022/01/10 07:29:20;;;;;;;2.17;1.50;;;;;;;19.19;48.30;96526.75;10291611;28;20049;-22
2022/01/10 07:34:20;;;;;;;2.65;1.58;;;;;;;19.18;48.48;96547.03;10291295;28;20200;-21
2022/01/10 07:39:21;;;;;;;3.22;1.50;;;;;;;19.20;48.28;96543.69;10291501;28;20474;-22
2022/01/10 07:44:21;;;;;;;1.48;1.20;;;;;;;19.24;48.83;96558.03;10291209;28;20458;-23
2022/01/10 07:49:21;;;;;;;2.47;1.47;;;;;;;19.29;49.02;96560.53;10289697;28;20413;-23
2022/01/10 07:54:22;;;;;;;2.13;1.30;;;;;;;19.25;48.84;96569.03;10331666;28;20342;-22
2022/01/10 07:59:22;;;;;;;1.87;1.47;;;;;;;19.24;49.57;96590.22;10309569;28;20039;-23
2022/01/10 08:04:23;;;;;;;2.00;1.20;;;;;;;19.19;49.51;96604.59;10290726;28;20392;-22
2022/01/10 08:09:23;;;;;;;2.15;1.38;;;;;;;19.20;49.24;96611.34;10289988;28;20776;-22
2022/01/10 08:14:23;;;;;;;3.17;1.50;;;;;;;19.19;49.35;96617.28;10300337;28;20518;-22
2022/01/10 08:19:26;;;;;;;3.23;2.60;;;;;;;19.20;49.51;96617.28;10322234;28;20072;-22
2022/01/10 08:24:27;;;;;;;2.67;1.60;;;;;;;19.01;49.61;96607.19;10290222;28;20034;-22
2022/01/10 08:29:29;;;;;;;1.88;1.50;;;;;;;19.18;49.48;96633.34;10289376;28;20162;-22
2022/01/10 08:34:29;;;;;;;2.30;1.25;;;;;;;19.27;49.63;96641.75;10289284;28;20019;-22
2022/01/10 08:39:29;;;;;;;2.30;1.20;;;;;;;19.30;49.62;96648.53;10289388;28;20560;-22
2022/01/10 08:44:30;;;;;;;4.05;1.30;;;;;;;19.25;49.79;96668.84;10288487;28;20041;-22
2022/01/10 08:49:30;;;;;;;1.67;1.40;;;;;;;19.21;49.64;96671.41;10290432;28;20038;-22
2022/01/10 08:54:31;;;;;;;1.67;1.20;;;;;;;19.20;49.68;96672.28;10329036;28;20266;-22
2022/01/10 08:59:32;;;;;;;1.50;1.25;;;;;;;19.18;49.66;96676.47;10318462;28;20038;-22
2022/01/10 09:04:32;;;;;;;5.47;1.58;;;;;;;19.16;49.80;96690.88;10288820;28;20110;-22
2022/01/10 09:09:32;;;;;;;2.87;1.40;;;;;;;19.16;49.93;96708.63;10288095;28;20467;-23
2022/01/10 09:14:33;;;;;;;1.30;1.13;;;;;;;19.02;49.67;96685.00;10299601;28;20325;-18
2022/01/10 09:19:33;;;;;;;1.75;1.38;;;;;;;19.19;49.93;96723.88;10319063;28;20381;-23
2022/01/10 09:24:34;;;;;;;2.03;1.40;;;;;;;19.26;49.50;96731.47;10287563;28;20041;-22
2022/01/10 09:29:34;;;;;;;2.08;1.30;;;;;;;19.20;49.55;96740.78;10287625;28;20513;-22
2022/01/10 09:34:35;;;;;;;1.58;1.27;;;;;;;19.23;49.66;96743.31;10287011;28;20532;-22
2022/01/10 09:39:36;;;;;;;2.08;1.20;;;;;;;19.22;49.80;96751.78;10286982;28;20043;-23
2022/01/10 09:44:36;;;;;;;2.47;1.20;;;;;;;19.16;49.80;96756.88;10287184;28;20487;-23
2022/01/10 09:49:37;;;;;;;2.23;1.50;;;;;;;19.18;49.93;96763.59;10288863;28;20027;-23
2022/01/10 09:54:37;;;;;;;2.00;1.42;;;;;;;19.18;50.00;96775.47;10327508;28;20042;-22
2022/01/10 09:59:40;;;;;;;1.23;1.13;;;;;;;19.19;50.20;96772.09;10313820;28;20066;-23
2022/01/10 10:04:41;;;;;;;3.28;1.52;;;;;;;19.18;49.84;96778.81;10287181;28;20542;-22
2022/01/10 10:09:42;;;;;;;1.25;0.95;;;;;;;19.18;50.05;96783.06;10287607;28;20035;-22
2022/01/10 10:14:45;;;;;;;2.05;1.38;;;;;;;19.26;50.15;96776.31;10298756;28;20027;-23
2022/01/10 10:19:46;;;;;;;0.88;0.80;;;;;;;19.25;49.80;96778.00;10316341;28;20093;-23
2022/01/10 10:24:47;;;;;;;1.90;1.15;;;;;;;19.07;49.62;96754.31;10286780;28;20113;-22
2022/01/10 10:29:48;;;;;;;1.92;0.90;;;;;;;19.20;49.69;96786.47;10286482;28;20130;-22
2022/01/10 10:34:56;;;;;;;2.20;1.08;;;;;;;19.19;49.76;96794.94;10286327;28;20074;-22
2022/01/10 10:39:57;;;;;;;1.08;0.95;;;;;;;19.17;49.93;96807.59;10286166;28;20035;-22
2022/01/10 10:44:58;;;;;;;1.50;1.17;;;;;;;19.19;49.92;96800.03;10285838;28;20093;-22
2022/01/10 10:49:59;;;;;;;2.00;1.30;;;;;;;19.21;49.67;96811.88;10296070;28;20108;-23
2022/01/10 10:55:07;;;;;;;1.38;1.10;;;;;;;19.21;49.96;96814.41;10332249;28;20037;-23
2022/01/10 11:00:12;;;;;;;1.02;0.90;;;;;;;19.24;49.94;96816.09;10309550;28;20035;-22
2022/01/10 11:05:12;;;;;;;1.33;0.90;;;;;;;19.22;49.82;96807.63;10292904;28;20038;-22
2022/01/10 11:10:13;;;;;;;1.75;0.90;;;;;;;19.26;49.73;96816.94;10292866;28;20061;-22
2022/01/10 11:15:14;;;;;;;1.58;1.15;;;;;;;19.31;49.53;96836.38;10308795;28;20054;-23
2022/01/10 11:20:20;;;;;;;1.63;1.23;;;;;;;19.29;49.84;96839.78;10318022;28;20043;-22
2022/01/10 11:25:28;;;;;;;1.02;0.93;;;;;;;19.24;49.41;96854.19;10292275;28;20035;-22
2022/01/10 11:30:32;;;;;;;2.00;1.23;;;;;;;19.26;50.04;96850.75;10291892;28;20047;-23
2022/01/10 11:35:45;;;;;;;2.40;1.23;;;;;;;19.09;50.51;96829.59;10292117;28;20101;-22
2022/01/10 11:40:51;;;;;;;2.67;1.50;;;;;;;19.28;50.75;96855.84;10291309;28;20045;-23
2022/01/10 11:46:06;;;;;;;7.93;4.53;;;;;;;19.29;50.93;96867.69;10291330;28;20039;-23
2022/01/10 11:51:13;;;;;;;15.48;5.45;;;;;;;19.29;50.78;96867.69;10305478;28;20042;-23
2022/01/10 11:56:26;;;;;;;10.38;4.85;;;;;;;19.38;51.32;96877.84;10296494;28;20169;-22
2022/01/10 12:01:34;;;;;;;12.38;5.10;;;;;;;19.33;51.44;96877.00;10290591;28;20118;-22
2022/01/10 12:06:35;;;;;;;10.27;4.40;;;;;;;19.33;51.18;96888.00;10291303;28;20031;-22
2022/01/10 12:11:38;;;;;;;12.30;4.72;;;;;;;19.31;51.49;96891.38;10290000;28;20039;-24
2022/01/10 12:16:39;;;;;;;12.95;3.83;;;;;;;19.33;51.45;96894.78;10317946;28;20034;-21
2022/01/10 12:21:40;;;;;;;10.15;4.40;;;;;;;19.28;51.71;96901.53;10304488;28;20405;-22
2022/01/10 12:26:41;;;;;;;7.55;3.90;;;;;;;19.22;51.99;96911.69;10289715;28;20564;-23
2022/01/10 12:31:44;;;;;;;8.88;3.72;;;;;;;19.24;51.88;96915.09;10289357;28;20035;-23
2022/01/10 12:36:46;;;;;;;9.20;4.18;;;;;;;19.09;51.85;96899.81;10289537;28;20218;-22
2022/01/10 12:41:47;;;;;;;7.78;3.63;;;;;;;19.24;51.92;96938.78;10289353;28;20093;-22
2022/01/10 12:46:48;;;;;;;6.82;3.35;;;;;;;19.26;51.88;96933.72;10288686;28;20049;-22
2022/01/10 12:51:52;;;;;;;8.45;3.28;;;;;;;19.24;52.03;96937.94;10308286;28;20040;-22
2022/01/10 12:56:52;;;;;;;7.30;3.33;;;;;;;19.20;51.77;96933.69;10327482;28;20030;-22
2022/01/10 13:01:53;;;;;;;10.55;4.05;;;;;;;19.16;52.26;96925.19;10288668;28;20424;-21
2022/01/10 13:06:55;;;;;;;6.05;2.85;;;;;;;19.26;51.99;96954.84;10287511;28;20042;-22
2022/01/10 13:12:12;;;;;;;8.40;3.28;;;;;;;19.29;52.08;96959.09;10326692;28;20041;-22
2022/01/10 13:17:13;;;;;;;6.97;3.28;;;;;;;19.32;51.72;96959.94;10315966;28;20069;-22
2022/01/10 13:22:15;;;;;;;7.27;2.77;;;;;;;19.23;50.26;96949.78;10297671;28;20481;-18
2022/01/10 13:27:21;;;;;;;9.45;3.50;;;;;;;19.25;51.76;96972.63;10286463;28;20030;-22
2022/01/10 13:32:30;;;;;;;5.90;2.90;;;;;;;19.18;47.50;96986.13;10286358;28;20086;-23
2022/01/10 13:37:49;;;;;;;5.50;3.05;;;;;;;19.26;51.63;96994.63;10287138;28;20070;-22
2022/01/10 13:42:50;;;;;;;5.10;2.75;;;;;;;19.30;51.82;96983.63;10286930;28;20129;-22
2022/01/10 13:47:57;;;;;;;10.98;2.85;;;;;;;19.38;52.11;97005.66;10287183;28;20034;-23
2022/01/10 13:53:14;;;;;;;;;;;;;;;19.40;51.78;97010.69;10316191;28;20048;-22
2022/01/10 13:58:23;;;;;;;9.07;2.92;;;;;;;19.27;52.08;96997.16;10322426;28;20008;-23
2022/01/10 14:03:27;;;;;;;4.55;3.67;;;;;;;19.42;51.67;97022.56;10286421;28;20042;-22
2022/01/10 14:08:28;;;;;;;6.72;3.20;;;;;;;19.46;51.78;97029.34;10286522;28;20038;-21
2022/01/10 14:13:29;;;;;;;5.93;2.90;;;;;;;19.47;51.37;97031.03;10288343;28;20041;-22
2022/01/10 14:18:29;;;;;;;6.28;3.30;;;;;;;19.40;51.34;97034.41;10324862;28;20034;-21
2022/01/10 14:23:30;;;;;;;8.13;3.75;;;;;;;19.51;51.45;97054.75;10291092;28;20046;-24
2022/01/10 14:28:31;;;;;;;4.65;3.35;;;;;;;18.31;43.82;97042.44;10294191;28;20106;-21
2022/01/10 14:33:32;;;;;;;9.05;4.63;;;;;;;18.57;47.04;97062.88;10293824;28;20027;-22
2022/01/10 14:38:32;;;;;;;7.85;5.00;;;;;;;18.88;50.70;97072.31;10293584;28;20039;-23
2022/01/10 14:43:33;;;;;;;9.80;4.57;;;;;;;18.94;50.86;97079.94;10323628;28;20122;-22
2022/01/10 14:48:34;;;;;;;25.63;5.18;;;;;;;19.01;51.57;97079.97;10293578;28;20051;-23
2022/01/10 14:53:36;;;;;;;10.93;4.25;;;;;;;19.08;51.69;97096.09;10333009;28;20057;-23
2022/01/10 14:58:37;;;;;;;7.88;4.50;;;;;;;19.12;50.82;97092.69;10315107;28;20030;-23
2022/01/10 15:03:38;;;;;;;24.70;6.10;;;;;;;19.19;51.75;97105.44;10292083;28;20027;-22
2022/01/10 15:08:41;;;;;;;26.52;8.57;;;;;;;19.22;51.79;97117.28;10292584;28;20038;-22
2022/01/10 15:13:43;;;;;;;10.65;5.95;;;;;;;19.23;52.28;97126.59;10297416;28;20101;-24
2022/01/10 15:18:44;;;;;;;12.70;6.45;;;;;;;19.20;51.91;97117.31;10329113;28;20034;-24
2022/01/10 15:23:49;;;;;;;11.60;6.40;;;;;;;19.27;51.77;97135.94;10291741;28;20062;-22
2022/01/10 15:28:49;;;;;;;14.32;7.60;;;;;;;19.31;51.52;97135.97;10292117;28;20414;-22
2022/01/10 15:33:50;;;;;;;13.90;7.88;;;;;;;19.30;52.16;97153.72;10291110;28;20034;-22
2022/01/10 15:38:51;;;;;;;16.20;7.57;;;;;;;19.20;52.14;97150.31;10290322;28;20035;-21
2022/01/10 15:43:56;;;;;;;12.10;8.02;;;;;;;19.25;52.00;97170.63;10290666;28;20042;-22
2022/01/10 15:48:56;;;;;;;18.15;8.52;;;;;;;19.25;52.32;97173.19;10291023;28;20042;-21
2022/01/10 15:53:57;;;;;;;15.43;8.18;;;;;;;19.26;52.14;97180.78;10328026;28;20053;-22
2022/01/10 15:58:57;;;;;;;12.03;8.00;;;;;;;19.29;51.93;97193.50;10321483;28;20050;-22
2022/01/10 16:03:57;;;;;;;14.70;7.60;;;;;;;19.34;51.96;97201.13;10290094;28;20302;-22
2022/01/10 16:08:59;;;;;;;20.93;8.70;;;;;;;19.48;51.33;97212.19;10290451;28;20277;-22
2022/01/10 16:13:59;;;;;;;10.48;8.00;;;;;;;19.38;51.42;97203.69;10294894;28;20026;-21
2022/01/10 16:19:00;;;;;;;12.93;8.73;;;;;;;19.36;51.96;97230.78;10326580;28;20041;-21
2022/01/10 16:24:00;;;;;;;14.13;8.17;;;;;;;19.38;51.84;97244.31;10289601;28;20389;-21
2022/01/10 16:29:00;;;;;;;14.63;8.52;;;;;;;19.36;52.11;97255.31;10289812;28;20035;-22
2022/01/10 16:34:01;;;;;;;11.20;7.67;;;;;;;19.36;51.96;97265.47;10288876;28;20038;-21
2022/01/10 16:39:02;;;;;;;16.10;8.10;;;;;;;19.39;51.81;97266.31;10289256;28;20286;-21
2022/01/10 16:44:03;;;;;;;11.70;7.90;;;;;;;19.44;51.77;97279.03;10288509;28;20490;-21
2022/01/10 16:49:04;;;;;;;13.45;8.77;;;;;;;19.19;48.54;97267.88;10289055;28;20094;-20
2022/01/10 16:54:07;;;;;;;14.15;7.05;;;;;;;19.29;50.56;97289.13;10301851;28;20181;-22
2022/01/10 16:59:07;;;;;;;12.93;7.57;;;;;;;19.55;51.26;97302.78;10287160;28;20043;-21
2022/01/10 17:04:08;;;;;;;18.05;5.68;;;;;;;18.70;45.93;97297.97;10288631;28;20035;-19
2022/01/10 17:09:08;;;;;;;36.22;6.20;;;;;;;19.19;49.14;97322.91;10288512;28;20563;-21
2022/01/10 17:14:09;;;;;;;26.07;7.43;;;;;;;19.40;53.44;97323.03;10295751;28;20486;-22
2022/01/10 17:19:09;;;;;;;19.10;7.43;;;;;;;19.50;51.34;97324.81;10323376;28;20301;-22
2022/01/10 17:24:10;;;;;;;20.25;6.72;;;;;;;19.48;51.24;97336.63;10287028;28;20680;-22
2022/01/10 17:29:10;;;;;;;10.65;6.97;;;;;;;19.46;51.22;97333.22;10287248;28;20031;-21
2022/01/10 17:34:12;;;;;;;12.15;6.63;;;;;;;19.45;50.74;97341.69;10286347;28;20073;-21
2022/01/10 17:39:12;;;;;;;9.32;6.57;;;;;;;19.31;50.83;97330.59;10287757;28;20037;-22
2022/01/10 17:44:13;;;;;;;14.45;6.10;;;;;;;19.45;50.98;97351.84;10287342;28;20039;-23
2022/01/10 17:49:16;;;;;;;12.33;5.70;;;;;;;19.46;50.69;97353.53;10286725;28;20448;-21
2022/01/10 17:54:17;;;;;;;11.82;5.82;;;;;;;19.47;50.84;97365.41;10320365;28;20803;-22
2022/01/10 17:59:18;;;;;;;9.20;5.88;;;;;;;19.43;51.42;97377.22;10323317;28;20047;-22
2022/01/10 18:04:18;;;;;;;11.30;6.23;;;;;;;19.48;51.25;97377.25;10310582;28;20046;-21
2022/01/10 18:09:19;;;;;;;11.17;5.97;;;;;;;19.43;51.40;97369.59;10294152;28;20062;-21
2022/01/10 18:14:20;;;;;;;11.27;6.20;;;;;;;19.50;51.54;97380.69;10303512;28;20034;-22
2022/01/10 18:19:20;;;;;;;10.70;5.90;;;;;;;19.48;51.53;97388.28;10327922;28;20396;-22
2022/01/10 18:24:21;;;;;;;11.87;6.13;;;;;;;19.51;51.53;97395.91;10322696;28;20034;-22
2022/01/10 18:29:28;;;;;;;14.65;6.00;;;;;;;19.50;51.44;97421.31;10326147;28;20031;-22
2022/01/10 18:34:28;;;;;;;;;;;;;;;19.49;51.47;97420.44;10301794;28;20026;-22
2022/01/10 18:39:28;;;;;;;10.73;5.43;;;;;;;19.53;50.72;97424.72;10308815;28;20021;-23
2022/01/10 18:44:29;;;;;;;6.97;4.90;;;;;;;19.50;50.15;97437.38;10314663;28;21424;-22
2022/01/10 18:49:30;;;;;;;13.67;5.83;;;;;;;19.49;50.10;97432.31;10316815;28;20525;-22
2022/01/10 18:54:30;;;;;;;9.13;5.32;;;;;;;19.40;50.08;97439.84;10326523;28;20077;-22
2022/01/10 18:59:31;;;;;;;10.37;5.10;;;;;;;19.43;50.09;97455.13;10319732;28;20516;-21
2022/01/10 19:04:31;;;;;;;9.50;5.05;;;;;;;19.43;50.82;97455.13;10310841;28;20305;-21
2022/01/10 19:09:32;;;;;;;9.93;5.60;;;;;;;19.39;50.56;97458.44;10321609;28;20096;-22
2022/01/10 19:14:33;;;;;;;10.23;5.30;;;;;;;19.38;50.93;97456.75;10324999;28;20038;-22
2022/01/10 19:19:33;;;;;;;9.23;5.50;;;;;;;19.33;50.87;97464.34;10318014;28;20049;-23
2022/01/10 19:24:34;;;;;;;8.30;5.27;;;;;;;19.37;51.15;97465.22;10321756;28;20579;-22
2022/01/10 19:29:34;;;;;;;7.38;5.45;;;;;;;19.33;51.21;97458.44;10314039;28;20411;-23
2022/01/10 19:34:34;;;;;;;7.95;5.32;;;;;;;19.34;51.35;97465.19;10314687;28;20043;-22
2022/01/10 19:39:35;;;;;;;9.90;5.60;;;;;;;19.30;51.38;97479.56;10324227;28;20054;-23
2022/01/10 19:44:35;;;;;;;7.77;5.10;;;;;;;19.27;51.45;97478.69;10325562;28;20301;-22
2022/01/10 19:49:36;;;;;;;6.50;5.15;;;;;;;19.27;51.50;97486.28;10318536;28;20496;-22
2022/01/10 19:54:36;;;;;;;9.33;5.17;;;;;;;19.27;51.44;97483.75;10325499;28;20081;-22
2022/01/10 19:59:37;;;;;;;9.10;5.43;;;;;;;19.27;51.70;97493.91;10324770;28;20122;-22
2022/01/10 20:04:37;;;;;;;6.87;4.37;;;;;;;19.30;51.28;97489.72;10316651;28;20034;-22
2022/01/10 20:09:38;;;;;;;6.53;4.80;;;;;;;19.17;51.41;97487.03;10325047;28;20285;-23
2022/01/10 20:14:38;;;;;;;7.07;4.30;;;;;;;19.29;51.46;97502.38;10322392;28;20034;-22
2022/01/10 20:19:39;;;;;;;7.18;4.32;;;;;;;19.25;51.33;97501.50;10315268;28;20035;-23
2022/01/10 20:24:40;;;;;;;8.70;4.57;;;;;;;19.18;51.17;97501.41;10323915;28;20038;-23
2022/01/10 20:29:41;;;;;;;5.40;4.45;;;;;;;19.25;51.37;97513.38;10318557;28;20791;-24
2022/01/10 20:34:41;;;;;;;6.20;4.57;;;;;;;19.19;51.93;97505.69;10323006;28;20026;-23
2022/01/10 20:39:41;;;;;;;5.50;4.07;;;;;;;19.20;51.59;97515.00;10320405;28;20293;-22
2022/01/10 20:44:42;;;;;;;6.65;4.53;;;;;;;19.00;51.58;97488.53;10305972;28;20375;-22
2022/01/10 20:49:42;;;;;;;9.00;4.80;;;;;;;19.18;51.61;97514.94;10311910;28;20039;-22
2022/01/10 20:54:43;;;;;;;6.28;4.13;;;;;;;19.18;51.71;97509.03;10328239;28;20046;-22
2022/01/10 20:59:44;;;;;;;9.50;5.00;;;;;;;19.22;51.97;97515.84;10319470;28;20129;-22
2022/01/10 21:04:45;;;;;;;6.60;3.90;;;;;;;19.23;51.81;97523.50;10322551;28;20201;-22
2022/01/10 21:09:46;;;;;;;7.82;4.50;;;;;;;19.29;51.84;97525.22;10288866;28;20446;-22
2022/01/10 21:14:46;;;;;;;7.83;5.33;;;;;;;19.25;52.09;97536.22;10300410;28;20129;-22
2022/01/10 21:19:47;;;;;;;9.60;4.43;;;;;;;19.27;51.96;97534.53;10314569;28;20294;-22
2022/01/10 21:24:48;;;;;;;14.13;7.72;;;;;;;19.27;52.01;97537.06;10321018;28;20696;-22
2022/01/10 21:29:49;;;;;;;8.30;4.22;;;;;;;19.27;52.32;97540.44;10316479;28;20038;-22
2022/01/10 21:34:49;;;;;;;9.43;4.47;;;;;;;19.18;52.51;97534.41;10304728;28;20065;-22
2022/01/10 21:39:49;;;;;;;9.67;5.03;;;;;;;19.21;52.75;97555.63;10324818;28;20282;-22
2022/01/10 21:44:50;;;;;;;11.40;5.63;;;;;;;19.22;53.12;97557.34;10309707;28;20301;-22
2022/01/10 21:49:51;;;;;;;7.72;4.15;;;;;;;19.20;53.21;97563.22;10290947;28;20042;-22
2022/01/10 21:54:52;;;;;;;10.95;5.13;;;;;;;19.15;53.31;97569.91;10327305;28;20078;-22
2022/01/10 21:59:52;;;;;;;8.25;4.63;;;;;;;19.16;53.24;97574.16;10311671;28;20049;-22
2022/01/10 22:04:52;;;;;;;10.43;4.60;;;;;;;19.16;53.32;97572.47;10287005;28;20026;-22
2022/01/10 22:09:53;;;;;;;10.30;4.37;;;;;;;19.16;53.37;97576.69;10286602;28;20043;-22
2022/01/10 22:14:53;;;;;;;5.83;3.87;;;;;;;19.16;53.24;97571.63;10300108;28;20408;-22
2022/01/10 22:19:54;;;;;;;8.83;4.73;;;;;;;19.17;53.31;97570.78;10315664;28;20298;-22
2022/01/10 22:24:54;;;;;;;7.18;4.13;;;;;;;19.15;53.33;97580.06;10286314;28;20661;-22
2022/01/10 22:29:54;;;;;;;7.53;3.80;;;;;;;19.17;52.94;97580.94;10286892;28;20034;-22
2022/01/10 22:34:55;;;;;;;8.53;4.73;;;;;;;19.14;53.18;97588.50;10286029;28;20029;-22
2022/01/10 22:39:55;;;;;;;7.27;4.00;;;;;;;19.15;52.97;97580.06;10285979;28;20278;-22
2022/01/10 22:44:55;;;;;;;9.90;5.33;;;;;;;19.12;53.08;97585.09;10291598;28;20031;-22
2022/01/10 22:49:56;;;;;;;7.32;4.10;;;;;;;19.13;53.18;97587.66;10298566;28;20445;-22
2022/01/10 22:54:56;;;;;;;7.03;4.00;;;;;;;18.98;53.15;97556.16;10333966;28;20477;-22
2022/01/10 22:59:57;;;;;;;5.30;3.40;;;;;;;19.13;53.18;97589.34;10316479;28;20477;-22
2022/01/10 23:04:57;;;;;;;7.00;3.50;;;;;;;19.10;53.16;97591.84;10292614;28;20049;-22
2022/01/10 23:09:57;;;;;;;5.30;3.50;;;;;;;19.10;53.31;97591.84;10292768;28;20046;-22
2022/01/10 23:14:58;;;;;;;8.53;4.30;;;;;;;19.12;53.00;97585.09;10306515;28;20663;-22
2022/01/10 23:19:58;;;;;;;6.17;4.00;;;;;;;19.12;53.28;97590.19;10320587;28;20048;-22
2022/01/10 23:24:59;;;;;;;6.67;4.30;;;;;;;19.12;53.06;97597.78;10290674;28;20407;-22
2022/01/10 23:29:59;;;;;;;6.75;3.90;;;;;;;19.04;52.97;97582.50;10291840;28;20309;-22
2022/01/10 23:35:00;;;;;;;7.23;3.93;;;;;;;19.09;53.06;97595.22;10302003;28;20034;-22